Disclaimer

Please do not use the information listed here in-flight or in-navigation, as they are not provided to us by the airports but are provided by volunteers, so they might be outdated.

Search


Regions


Airport information page

Radio informations:
Tower (TWR) - 118.7 MHz
APRON CTL - 121.6 MHz
Automatic Terminal Information Service (ATIS) - 126.2 MHz
Approach (APP) - 122.3 MHz

Airport informations:
Latitude: 01° 19' 09.27" S
Longitude: 036° 55' 39.99" E
Elevation: 5330 feet - 1625 meters
Operating hours: N/A
Operating agency: Military-civil joint use airport
Timezone: UTC+3
Fuel: Jet A1, without icing nhibitor.

100/130 octane gasoline, leaded, MIL-L-5572F (GREEN)

Runway information:
06/24 - 13507 x 148 feet< - >4117 x 45 meters

Recent METARs:
HKJK 131830Z 04008KT 9999 SCT022 20/16 Q1021 NOSIG
HKJK 131830Z 04008KT 9999 SCT022 20/16 Q1021 NOSIG
HKJK 131930Z 03008KT 9999 SCT022 19/15 Q1022 NOSIG

Airport on the map: